createdAt,value
2023-01-01T00:01:50.399Z,34.78
2023-01-01T00:04:19.670Z,27.92
2023-01-01T00:06:48.781Z,23.00
2023-01-01T00:09:15.863Z,30.27
2023-01-01T00:11:45.107Z,20.83
2023-01-01T00:14:12.740Z,27.10
2023-01-01T00:16:41.305Z,23.63
2023-01-01T00:19:08.664Z,23.70
2023-01-01T00:21:39.013Z,31.77
2023-01-01T00:24:06.951Z,17.10
2023-01-01T00:26:35.471Z,25.08
2023-01-01T00:29:07.119Z,22.02
2023-01-01T00:34:57.003Z,17.05
2023-01-01T00:37:23.932Z,22.85
2023-01-01T00:39:50.896Z,25.75
2023-01-01T00:42:24.284Z,18.23
2023-01-01T00:44:57.116Z,23.80
2023-01-01T00:47:23.893Z,31.85
2023-01-01T00:49:51.075Z,22.73
2023-01-01T00:52:19.261Z,31.00
2023-01-01T00:54:46.102Z,41.28
2023-01-01T00:57:13.747Z,32.97
2023-01-01T00:59:42.835Z,38.30
2023-01-01T01:02:10.120Z,45.13
2023-01-01T01:04:36.984Z,45.22
2023-01-01T01:07:03.726Z,43.22
2023-01-01T01:09:32.016Z,139.18
2023-01-01T01:12:17.267Z,75.00
2023-01-01T01:14:50.859Z,46.15
2023-01-01T01:17:17.980Z,50.08
2023-01-01T01:19:50.249Z,53.40
2023-01-01T01:22:25.990Z,56.78
2023-01-01T01:25:05.830Z,53.97
2023-01-01T01:27:33.862Z,57.75
2023-01-01T01:30:02.873Z,68.55
2023-01-01T01:32:44.630Z,72.68
2023-01-01T01:35:12.129Z,57.95
2023-01-01T01:37:39.441Z,61.15
2023-01-01T01:40:23.268Z,73.85
2023-01-01T01:42:51.597Z,64.63
2023-01-01T01:45:20.504Z,67.53
2023-01-01T01:48:11.207Z,71.30
2023-01-01T01:50:54.887Z,70.85
2023-01-01T01:53:29.721Z,77.28
2023-01-01T01:56:03.434Z,69.60
2023-01-01T01:58:38.989Z,69.45
2023-01-01T02:01:11.636Z,63.35
2023-01-01T02:03:44.015Z,72.18
2023-01-01T02:06:13.558Z,75.20
2023-01-01T02:08:40.648Z,63.28
2023-01-01T02:11:09.276Z,74.43
2023-01-01T02:13:36.235Z,70.82
2023-01-01T02:16:12.039Z,69.43
2023-01-01T02:18:46.632Z,71.78
2023-01-01T02:21:23.414Z,66.90
2023-01-01T02:24:14.592Z,69.68
2023-01-01T02:26:53.347Z,110.03
2023-01-01T02:29:30.280Z,85.28
2023-01-01T02:32:09.339Z,122.25
2023-01-01T02:34:40.882Z,85.30
2023-01-01T02:37:13.363Z,78.00
2023-01-01T02:39:45.639Z,72.70
2023-01-01T02:42:12.975Z,137.75
2023-01-01T02:44:44.867Z,104.60
2023-01-01T02:47:14.205Z,59.35
2023-01-01T02:49:54.080Z,71.35
2023-01-01T02:52:40.817Z,83.82
2023-01-01T02:55:16.540Z,61.50
2023-01-01T02:57:50.985Z,86.82
2023-01-01T03:00:21.320Z,61.47
2023-01-01T03:03:14.471Z,52.30
2023-01-01T03:05:51.737Z,52.92
2023-01-01T03:08:27.213Z,39.47
2023-01-01T03:11:04.862Z,23.75
2023-01-01T03:13:41.565Z,25.83
2023-01-01T03:16:16.181Z,29.27
2023-01-01T03:21:51.833Z,34.22
2023-01-01T03:24:51.268Z,33.00
2023-01-01T03:27:28.701Z,27.35
2023-01-01T03:30:55.858Z,26.17
2023-01-01T03:39:59.401Z,37.08
2023-01-01T03:42:52.815Z,101.50
2023-01-01T03:46:15.624Z,38.15
2023-01-01T03:48:50.340Z,25.58
2023-01-01T03:51:31.455Z,30.63
2023-01-01T03:54:08.261Z,26.35
2023-01-01T03:56:44.873Z,20.92
2023-01-01T03:59:25.291Z,31.75
2023-01-01T04:02:08.769Z,19.15
2023-01-01T04:04:49.776Z,15.60
2023-01-01T04:07:24.849Z,19.30
2023-01-01T04:09:56.311Z,24.08
2023-01-01T04:18:31.388Z,26.10
2023-01-01T04:21:12.369Z,34.60
2023-01-01T04:26:34.058Z,25.88
2023-01-01T04:29:03.157Z,23.40
2023-01-01T04:31:31.296Z,21.65
2023-01-01T04:34:04.481Z,22.27
2023-01-01T04:36:33.727Z,18.25
2023-01-01T04:39:00.945Z,35.05
2023-01-01T04:41:36.775Z,24.45
2023-01-01T04:44:03.793Z,23.40
2023-01-01T04:46:32.627Z,18.77
2023-01-01T04:48:59.609Z,30.17
2023-01-01T04:51:26.491Z,33.17
2023-01-01T04:54:00.257Z,29.85
2023-01-01T04:56:29.162Z,27.38
2023-01-01T04:58:56.119Z,52.25
2023-01-01T05:01:24.625Z,43.88
2023-01-01T05:03:54.473Z,24.25
2023-01-01T05:06:21.928Z,18.20
2023-01-01T05:08:51.025Z,20.45
2023-01-01T05:11:26.514Z,15.15
2023-01-01T05:13:58.225Z,9.35
2023-01-01T05:16:27.339Z,12.32
2023-01-01T05:19:04.915Z,14.07
2023-01-01T05:21:34.064Z,9.77
2023-01-01T05:24:05.725Z,12.95
2023-01-01T05:26:41.793Z,13.43
2023-01-01T05:29:16.868Z,17.15
2023-01-01T05:31:48.356Z,79.35
2023-01-01T05:34:24.510Z,24.02
2023-01-01T05:37:02.524Z,49.22
2023-01-01T05:39:29.538Z,12.95
2023-01-01T05:42:15.378Z,43.00
2023-01-01T05:44:45.220Z,13.32
2023-01-01T05:47:12.190Z,18.90
2023-01-01T05:49:39.235Z,16.30
2023-01-01T05:52:06.020Z,10.40
2023-01-01T05:54:32.776Z,28.75
2023-01-01T05:56:59.534Z,10.30
2023-01-01T05:59:28.642Z,14.63
2023-01-01T06:01:58.474Z,12.77
2023-01-01T06:04:25.493Z,15.02
2023-01-01T06:06:52.656Z,8.05
2023-01-01T06:09:19.421Z,5.47
2023-01-01T06:11:46.456Z,13.63
2023-01-01T06:14:14.949Z,11.23
2023-01-01T06:16:43.151Z,9.15
2023-01-01T06:19:11.408Z,12.23
2023-01-01T06:21:38.535Z,10.50
2023-01-01T06:24:06.436Z,12.07
2023-01-01T06:26:33.632Z,7.03
2023-01-01T06:29:01.448Z,9.13
2023-01-01T06:31:34.306Z,10.45
2023-01-01T06:34:13.748Z,8.85
2023-01-01T06:36:46.021Z,9.52
2023-01-01T06:39:12.940Z,15.25
2023-01-01T06:42:00.354Z,16.10
2023-01-01T06:44:38.978Z,9.50
2023-01-01T06:47:08.688Z,13.23
2023-01-01T06:49:39.464Z,15.40
2023-01-01T06:52:06.192Z,14.65
2023-01-01T06:54:33.040Z,11.48
2023-01-01T06:56:59.781Z,18.35
2023-01-01T06:59:26.566Z,17.08
2023-01-01T07:01:53.459Z,12.57
2023-01-01T07:04:20.469Z,17.60
2023-01-01T07:06:49.094Z,20.42
2023-01-01T07:09:16.206Z,12.65
2023-01-01T07:11:42.977Z,17.92
2023-01-01T07:14:09.694Z,18.58
2023-01-01T07:16:36.545Z,23.55
2023-01-01T07:19:07.516Z,25.73
2023-01-01T07:21:43.963Z,21.40
2023-01-01T07:24:14.417Z,29.00
2023-01-01T07:26:41.811Z,24.42
2023-01-01T07:29:09.116Z,26.10
2023-01-01T07:31:37.316Z,26.23
2023-01-01T07:34:04.945Z,25.15
2023-01-01T07:36:31.823Z,27.77
2023-01-01T07:38:58.822Z,23.38
2023-01-01T07:41:27.018Z,22.70
2023-01-01T07:43:56.575Z,27.55
2023-01-01T07:46:23.712Z,22.55
2023-01-01T07:48:50.632Z,22.35
2023-01-01T07:51:17.335Z,34.38
2023-01-01T07:53:44.362Z,28.90
2023-01-01T07:56:11.302Z,26.40
2023-01-01T07:58:40.926Z,29.60
2023-01-01T08:01:13.290Z,22.80
2023-01-01T08:03:40.635Z,27.63
2023-01-01T08:06:09.195Z,28.52
2023-01-01T08:08:36.101Z,26.63
2023-01-01T08:11:05.927Z,34.58
2023-01-01T08:13:32.838Z,22.45
2023-01-01T08:16:01.645Z,23.02
2023-01-01T08:18:28.644Z,29.90
2023-01-01T08:20:55.429Z,32.25
2023-01-01T08:23:22.412Z,25.20
2023-01-01T08:25:49.191Z,32.08
2023-01-01T08:28:15.898Z,35.30
2023-01-01T08:30:44.348Z,27.13
2023-01-01T08:33:12.532Z,27.40
2023-01-01T08:35:42.482Z,26.27
2023-01-01T08:38:11.796Z,27.48
2023-01-01T08:40:38.963Z,35.80
2023-01-01T08:43:05.943Z,32.17
2023-01-01T08:45:33.501Z,35.58
2023-01-01T08:48:01.387Z,35.78
2023-01-01T08:50:29.542Z,35.30
2023-01-01T08:52:58.277Z,33.85
2023-01-01T08:55:25.097Z,33.38
2023-01-01T08:57:52.047Z,32.63
2023-01-01T09:00:19.193Z,37.42
2023-01-01T09:02:46.057Z,31.00
2023-01-01T09:05:12.895Z,33.83
2023-01-01T09:07:41.494Z,32.40
2023-01-01T09:10:11.467Z,32.42
2023-01-01T09:12:42.642Z,36.38
2023-01-01T09:15:17.775Z,34.47
2023-01-01T09:17:44.971Z,30.75
2023-01-01T09:20:13.756Z,27.85
2023-01-01T09:22:44.593Z,27.92
2023-01-01T09:25:11.441Z,31.30
2023-01-01T09:27:38.209Z,26.88
2023-01-01T09:30:06.299Z,25.45
2023-01-01T09:32:33.182Z,30.15
2023-01-01T09:34:59.931Z,27.35
2023-01-01T09:37:26.837Z,32.60
2023-01-01T09:39:55.312Z,32.42
2023-01-01T09:42:36.166Z,34.35
2023-01-01T09:45:13.488Z,36.30
2023-01-01T09:47:42.896Z,29.95
2023-01-01T09:50:15.122Z,32.20
2023-01-01T09:52:51.267Z,29.75
2023-01-01T09:55:43.683Z,26.83
2023-01-01T09:58:11.908Z,37.22
2023-01-01T10:00:41.612Z,25.90
2023-01-01T10:03:25.486Z,30.13
2023-01-01T10:06:00.214Z,32.83
2023-01-01T10:08:37.386Z,36.95
2023-01-01T10:11:16.095Z,37.38
2023-01-01T10:13:47.076Z,30.25
2023-01-01T10:16:25.470Z,34.92
2023-01-01T10:18:56.648Z,29.58
2023-01-01T10:21:27.346Z,25.98
2023-01-01T10:23:57.905Z,22.45
2023-01-01T10:26:28.521Z,29.38
2023-01-01T10:29:00.360Z,24.45
2023-01-01T10:31:32.545Z,29.60
2023-01-01T10:34:01.702Z,27.48
2023-01-01T10:36:28.579Z,29.25
2023-01-01T10:38:55.241Z,27.67
2023-01-01T10:41:22.059Z,25.35
2023-01-01T10:43:50.422Z,26.42
2023-01-01T10:46:27.622Z,23.63
2023-01-01T10:49:07.941Z,26.83
2023-01-01T10:51:37.981Z,23.00
2023-01-01T10:54:04.966Z,19.73
2023-01-01T10:56:40.433Z,17.02
2023-01-01T10:59:37.347Z,18.60
2023-01-01T11:02:15.824Z,22.60
2023-01-01T11:04:43.165Z,23.23
2023-01-01T11:07:18.079Z,21.70
2023-01-01T11:10:02.669Z,17.70
2023-01-01T11:13:03.495Z,23.38
2023-01-01T11:15:25.609Z,19.48
2023-01-01T11:17:53.616Z,16.55
2023-01-01T11:20:38.371Z,20.17
2023-01-01T11:23:27.571Z,17.60
2023-01-01T11:26:02.774Z,27.95
2023-01-01T11:28:30.784Z,21.27
2023-01-01T11:31:13.920Z,22.45
2023-01-01T11:33:47.007Z,24.17
2023-01-01T11:36:34.672Z,17.40
2023-01-01T11:39:14.043Z,25.40
2023-01-01T11:41:55.669Z,22.80
2023-01-01T11:44:30.751Z,20.33
2023-01-01T11:47:15.035Z,25.73
2023-01-01T11:50:03.524Z,20.27
2023-01-01T11:52:44.873Z,24.33
2023-01-01T11:55:19.810Z,20.67
2023-01-01T11:58:03.997Z,26.00
2023-01-01T12:01:28.250Z,19.80
2023-01-01T12:04:03.107Z,18.95
2023-01-01T12:06:50.589Z,20.80
2023-01-01T12:09:39.566Z,15.98
2023-01-01T12:12:29.603Z,16.77
2023-01-01T12:15:03.789Z,21.85
2023-01-01T12:18:04.919Z,26.48
2023-01-01T12:23:35.110Z,25.90
2023-01-01T12:26:44.285Z,15.80
2023-01-01T12:29:58.055Z,19.58
2023-01-01T12:32:42.269Z,22.23
2023-01-01T12:35:20.267Z,18.58
2023-01-01T12:38:09.361Z,22.05
2023-01-01T12:40:42.975Z,19.27
2023-01-01T12:43:12.832Z,19.02
2023-01-01T12:45:55.268Z,17.45
2023-01-01T12:48:42.212Z,17.40
2023-01-01T12:51:25.103Z,22.10
2023-01-01T12:54:08.965Z,15.45
2023-01-01T12:56:43.021Z,16.40
2023-01-01T12:59:15.620Z,16.70
2023-01-01T13:01:43.069Z,13.38
2023-01-01T13:04:14.460Z,23.75
2023-01-01T13:06:47.446Z,19.95
2023-01-01T13:09:18.721Z,16.05
2023-01-01T13:11:51.208Z,15.57
2023-01-01T13:14:18.062Z,20.40
2023-01-01T13:16:50.620Z,27.08
2023-01-01T13:19:27.037Z,18.33
2023-01-01T13:21:54.325Z,20.00
2023-01-01T13:24:24.683Z,15.30
2023-01-01T13:26:52.268Z,26.05
2023-01-01T13:29:33.318Z,13.57
2023-01-01T13:32:05.556Z,15.05
2023-01-01T13:34:35.397Z,17.27
2023-01-01T13:37:27.839Z,24.30
2023-01-01T13:39:58.027Z,17.23
2023-01-01T13:42:43.141Z,19.40
2023-01-01T13:45:36.599Z,19.05
2023-01-01T13:48:16.661Z,20.65
2023-01-01T13:50:51.168Z,19.58
2023-01-01T13:53:34.919Z,17.08
2023-01-01T13:56:16.775Z,26.08
2023-01-01T13:59:12.214Z,19.35
2023-01-01T14:02:17.145Z,18.67
2023-01-01T14:04:47.549Z,22.45
2023-01-01T14:07:50.060Z,18.45
2023-01-01T14:10:26.309Z,15.75
2023-01-01T14:12:57.392Z,21.38
2023-01-01T14:15:28.304Z,24.23
2023-01-01T14:18:04.768Z,17.05
2023-01-01T14:20:36.354Z,18.88
2023-01-01T14:23:09.037Z,19.35
2023-01-01T14:25:36.415Z,18.65
2023-01-01T14:28:05.029Z,22.38
2023-01-01T14:30:33.158Z,20.48
2023-01-01T14:33:02.086Z,20.33
2023-01-01T14:35:29.484Z,20.92
2023-01-01T14:37:57.073Z,18.83
2023-01-01T14:40:26.445Z,21.77
2023-01-01T14:42:57.024Z,14.02
2023-01-01T14:45:25.971Z,23.80
2023-01-01T14:47:55.028Z,18.42
2023-01-01T14:50:29.778Z,23.23
2023-01-01T14:53:03.407Z,17.67
2023-01-01T14:55:38.054Z,22.33
2023-01-01T14:58:05.428Z,16.98
2023-01-01T15:00:34.498Z,13.90
2023-01-01T15:03:10.086Z,22.00
2023-01-01T15:05:39.567Z,22.13
2023-01-01T15:08:17.928Z,17.83
2023-01-01T15:10:44.829Z,22.08
2023-01-01T15:13:18.291Z,22.67
2023-01-01T15:15:48.553Z,22.08
2023-01-01T15:18:37.770Z,16.95
2023-01-01T15:21:08.957Z,20.63
2023-01-01T15:23:36.620Z,19.83
2023-01-01T15:26:10.922Z,19.40
2023-01-01T15:28:37.973Z,20.30
2023-01-01T15:31:08.928Z,21.15
2023-01-01T15:33:35.958Z,17.27
2023-01-01T15:36:02.857Z,23.88
2023-01-01T15:38:32.587Z,18.30
2023-01-01T15:40:59.417Z,25.40
2023-01-01T15:43:28.627Z,21.77
2023-01-01T15:45:58.178Z,21.65
2023-01-01T15:48:36.056Z,18.67
2023-01-01T15:51:06.618Z,23.15
2023-01-01T15:53:52.049Z,24.00
2023-01-01T15:56:20.912Z,24.15
2023-01-01T15:58:52.971Z,26.40
2023-01-01T16:01:22.521Z,23.67
2023-01-01T16:03:59.094Z,24.00
2023-01-01T16:06:26.017Z,18.58
2023-01-01T16:08:52.778Z,13.65
2023-01-01T16:11:25.536Z,29.30
2023-01-01T16:13:52.471Z,20.20
2023-01-01T16:16:26.995Z,13.60
2023-01-01T16:18:58.547Z,20.80
2023-01-01T16:21:26.859Z,20.80
2023-01-01T16:23:53.721Z,32.20
2023-01-01T16:26:20.809Z,21.55
2023-01-01T16:28:48.269Z,28.73
2023-01-01T16:31:15.834Z,24.50
2023-01-01T16:33:43.147Z,17.67
2023-01-01T16:36:12.604Z,13.82
2023-01-01T16:38:39.367Z,22.20
2023-01-01T16:41:06.086Z,14.45
2023-01-01T16:43:32.787Z,22.10
2023-01-01T16:46:02.194Z,29.92
2023-01-01T16:48:29.159Z,21.98
2023-01-01T16:50:55.893Z,18.80
2023-01-01T16:53:24.070Z,27.63
2023-01-01T16:55:51.614Z,14.52
2023-01-01T17:01:05.695Z,39.92
2023-01-01T17:03:32.552Z,23.75
2023-01-01T17:06:06.110Z,23.85
2023-01-01T17:08:35.080Z,21.52
2023-01-01T17:11:09.462Z,22.20
2023-01-01T17:13:37.098Z,20.27
2023-01-01T17:16:04.239Z,19.40
2023-01-01T17:19:12.837Z,20.65
2023-01-01T17:21:18.661Z,21.38
2023-01-01T17:23:47.022Z,16.15
2023-01-01T17:26:15.584Z,22.52
2023-01-01T17:28:43.092Z,19.95
2023-01-01T17:31:11.868Z,15.05
2023-01-01T17:33:39.550Z,19.23
2023-01-01T17:36:08.141Z,16.55
2023-01-01T17:38:35.330Z,25.60
2023-01-01T17:41:05.971Z,20.15
2023-01-01T17:43:33.559Z,17.13
2023-01-01T17:46:04.764Z,20.65
2023-01-01T17:48:31.449Z,18.77
2023-01-01T17:50:58.262Z,15.40
2023-01-01T17:53:25.320Z,12.93
2023-01-01T17:55:52.048Z,14.35
2023-01-01T17:58:20.218Z,19.80
2023-01-01T18:00:46.980Z,19.70
2023-01-01T18:03:14.218Z,18.80
2023-01-01T18:05:40.999Z,23.08
2023-01-01T18:08:07.996Z,16.20
2023-01-01T18:10:46.490Z,18.90
2023-01-01T18:13:13.249Z,15.13
2023-01-01T18:15:43.367Z,21.35
2023-01-01T18:18:12.503Z,22.10
2023-01-01T18:20:39.440Z,28.02
2023-01-01T18:23:08.875Z,25.38
2023-01-01T18:25:35.638Z,28.38
2023-01-01T18:28:09.502Z,17.20
2023-01-01T18:30:43.146Z,16.80
2023-01-01T18:33:11.299Z,19.63
2023-01-01T18:35:38.181Z,16.75
2023-01-01T18:38:05.302Z,22.63
2023-01-01T18:40:36.747Z,13.02
2023-01-01T18:45:36.368Z,19.77
2023-01-01T18:48:27.883Z,23.50
2023-01-01T18:51:06.832Z,18.05
2023-01-01T18:53:45.354Z,15.82
2023-01-01T18:56:17.519Z,14.73
2023-01-01T18:58:46.408Z,20.95
2023-01-01T19:01:28.542Z,25.75
2023-01-01T19:04:01.191Z,16.88
2023-01-01T19:06:33.627Z,14.23
2023-01-01T19:09:16.065Z,17.98
2023-01-01T19:11:43.690Z,21.23
2023-01-01T19:14:26.933Z,15.35
2023-01-01T19:16:59.844Z,14.43
2023-01-01T19:19:34.711Z,20.27
2023-01-01T19:22:17.773Z,17.38
2023-01-01T19:24:50.761Z,17.35
2023-01-01T19:27:19.057Z,15.25
2023-01-01T19:29:46.990Z,17.27
2023-01-01T19:32:13.805Z,16.98
2023-01-01T19:34:41.927Z,17.77
2023-01-01T19:37:09.757Z,23.85
2023-01-01T19:39:36.646Z,21.38
2023-01-01T19:42:04.276Z,21.65
2023-01-01T19:44:31.351Z,17.98
2023-01-01T19:46:58.072Z,16.92
2023-01-01T19:49:24.921Z,15.25
2023-01-01T19:51:53.138Z,24.40
2023-01-01T19:54:19.900Z,14.80
2023-01-01T19:56:47.268Z,24.55
2023-01-01T19:59:14.107Z,18.10
2023-01-01T20:01:42.225Z,14.02
2023-01-01T20:04:09.273Z,16.35
2023-01-01T20:06:36.213Z,20.13
2023-01-01T20:09:04.452Z,20.42
2023-01-01T20:11:31.185Z,13.55
2023-01-01T20:13:58.051Z,12.18
2023-01-01T20:16:24.887Z,10.95
2023-01-01T20:18:51.654Z,17.65
2023-01-01T20:21:23.688Z,12.52
2023-01-01T20:23:53.021Z,13.32
2023-01-01T20:26:21.194Z,14.27
2023-01-01T20:28:48.669Z,8.75
2023-01-01T20:31:15.718Z,14.48
2023-01-01T20:33:43.100Z,10.68
2023-01-01T20:36:10.397Z,12.20
2023-01-01T20:38:40.346Z,18.90
2023-01-01T20:41:10.595Z,12.55
2023-01-01T20:43:38.639Z,10.05
2023-01-01T20:46:05.712Z,12.50
2023-01-01T20:48:32.492Z,6.65
2023-01-01T20:50:59.296Z,8.50
2023-01-01T20:53:26.003Z,8.52
2023-01-01T20:55:52.898Z,7.70
2023-01-01T20:58:19.617Z,8.77
2023-01-01T21:00:48.311Z,4.38
2023-01-01T21:03:15.310Z,9.23
2023-01-01T21:05:42.047Z,4.68
2023-01-01T21:08:08.735Z,6.47
2023-01-01T21:10:35.665Z,6.70
2023-01-01T21:13:02.410Z,4.35
2023-01-01T21:15:29.185Z,8.45
2023-01-01T21:17:57.882Z,8.27
2023-01-01T21:20:27.200Z,7.85
2023-01-01T21:22:58.050Z,7.60
2023-01-01T21:28:15.518Z,7.65
2023-01-01T21:30:49.122Z,7.13
2023-01-01T21:33:26.537Z,7.95
2023-01-01T21:35:53.899Z,17.05
2023-01-01T21:38:24.812Z,14.27
2023-01-01T21:40:53.838Z,9.38
2023-01-01T21:43:30.417Z,17.17
2023-01-01T21:46:03.080Z,11.02
2023-01-01T21:48:33.755Z,9.15
2023-01-01T21:51:01.635Z,8.95
2023-01-01T21:53:29.831Z,11.45
2023-01-01T21:55:57.181Z,8.10
2023-01-01T21:58:25.718Z,13.43
2023-01-01T22:00:52.468Z,7.28
2023-01-01T22:03:19.186Z,8.85
2023-01-01T22:05:47.417Z,10.07
2023-01-01T22:08:23.617Z,7.65
2023-01-01T22:10:50.690Z,9.60
2023-01-01T22:13:19.488Z,12.15
2023-01-01T22:15:46.543Z,12.30
2023-01-01T22:18:22.076Z,12.85
2023-01-01T22:20:50.899Z,8.35
2023-01-01T22:23:31.938Z,7.20
2023-01-01T22:25:58.706Z,9.95
2023-01-01T22:28:27.214Z,11.13
2023-01-01T22:30:57.434Z,14.32
2023-01-01T22:33:32.216Z,12.50
2023-01-01T22:36:00.370Z,9.23
2023-01-01T22:38:32.419Z,6.65
2023-01-01T22:40:59.626Z,10.70
2023-01-01T22:43:31.381Z,10.30
2023-01-01T22:45:59.720Z,7.82
2023-01-01T22:48:32.476Z,9.02
2023-01-01T22:51:05.388Z,8.93
2023-01-01T22:53:32.237Z,5.57
2023-01-01T22:55:59.019Z,11.45
2023-01-01T22:58:26.560Z,7.38
2023-01-01T23:00:53.418Z,7.28
2023-01-01T23:03:20.361Z,9.18
2023-01-01T23:05:47.053Z,13.15
2023-01-01T23:08:15.329Z,12.38
2023-01-01T23:10:42.057Z,7.30
2023-01-01T23:13:08.812Z,6.72
2023-01-01T23:15:35.547Z,6.75
2023-01-01T23:18:02.308Z,5.20
2023-01-01T23:20:30.698Z,11.07
2023-01-01T23:22:58.360Z,8.50
2023-01-01T23:25:27.856Z,5.00
2023-01-01T23:27:55.383Z,6.90
2023-01-01T23:30:22.056Z,7.40
2023-01-01T23:32:51.606Z,4.65
2023-01-01T23:35:18.579Z,6.15
2023-01-01T23:37:45.356Z,6.43
2023-01-01T23:40:12.527Z,9.32
2023-01-01T23:42:40.840Z,10.80
2023-01-01T23:45:08.150Z,5.63
2023-01-01T23:47:35.086Z,3.58
2023-01-01T23:50:02.453Z,5.22
2023-01-01T23:52:29.467Z,3.83
2023-01-01T23:54:56.358Z,6.85
2023-01-01T23:57:23.329Z,5.72
2023-01-01T23:59:51.576Z,3.55
